createdAt,value
2024-01-28T00:00:00.270Z,73.45
2024-01-28T00:02:28.230Z,73.39
2024-01-28T00:04:56.063Z,73.35
2024-01-28T00:07:23.725Z,73.42
2024-01-28T00:09:51.332Z,73.40
2024-01-28T00:12:19.202Z,73.18
2024-01-28T00:14:46.808Z,73.28
2024-01-28T00:17:14.789Z,73.29
2024-01-28T00:19:42.521Z,73.26
2024-01-28T00:22:10.316Z,73.17
2024-01-28T00:24:37.890Z,73.00
2024-01-28T00:27:05.662Z,73.10
2024-01-28T00:29:33.188Z,72.82
2024-01-28T00:32:00.861Z,72.76
2024-01-28T00:34:28.587Z,72.69
2024-01-28T00:36:56.461Z,72.55
2024-01-28T00:39:24.562Z,72.67
2024-01-28T00:41:52.113Z,72.74
2024-01-28T00:44:19.769Z,72.72
2024-01-28T00:46:47.433Z,72.71
2024-01-28T00:49:15.230Z,72.66
2024-01-28T00:51:43.079Z,72.52
2024-01-28T00:54:10.939Z,72.48
2024-01-28T00:56:38.486Z,72.45
2024-01-28T00:59:06.354Z,72.46
2024-01-28T01:01:34.046Z,72.48
2024-01-28T01:04:01.919Z,72.58
2024-01-28T01:06:29.740Z,72.49
2024-01-28T01:08:57.608Z,72.57
2024-01-28T01:11:25.373Z,72.44
2024-01-28T01:13:53.032Z,72.61
2024-01-28T01:16:20.697Z,72.60
2024-01-28T01:18:48.789Z,72.74
2024-01-28T01:21:16.475Z,72.78
2024-01-28T01:23:44.346Z,72.86
2024-01-28T01:26:11.958Z,72.99
2024-01-28T01:28:39.711Z,72.93
2024-01-28T01:31:07.276Z,72.86
2024-01-28T01:33:35.067Z,72.89
2024-01-28T01:36:03.062Z,72.94
2024-01-28T01:38:31.289Z,73.06
2024-01-28T01:40:58.942Z,73.13
2024-01-28T01:43:26.637Z,73.16
2024-01-28T01:45:54.155Z,73.25
2024-01-28T01:48:21.954Z,73.56
2024-01-28T01:50:49.703Z,73.55
2024-01-28T01:53:17.153Z,73.64
2024-01-28T01:55:44.809Z,73.65
2024-01-28T01:58:12.468Z,73.57
2024-01-28T02:00:40.261Z,73.57
2024-01-28T02:03:08.362Z,73.60
2024-01-28T02:05:36.099Z,73.68
2024-01-28T02:08:03.726Z,73.73
2024-01-28T02:10:31.386Z,73.71
2024-01-28T02:12:58.950Z,73.72
2024-01-28T02:15:26.536Z,73.76
2024-01-28T02:17:54.378Z,73.76
2024-01-28T02:20:22.270Z,73.87
2024-01-28T02:22:50.115Z,73.84
2024-01-28T02:25:17.670Z,73.92
2024-01-28T02:27:45.373Z,74.02
2024-01-28T02:30:13.066Z,74.14
2024-01-28T02:32:40.916Z,74.18
2024-01-28T02:35:08.725Z,74.27
2024-01-28T02:37:36.381Z,74.32
2024-01-28T02:40:04.048Z,74.43
2024-01-28T02:42:31.650Z,74.45
2024-01-28T02:44:59.162Z,74.49
2024-01-28T02:47:26.859Z,74.52
2024-01-28T02:49:54.748Z,74.62
2024-01-28T02:52:22.446Z,74.75
2024-01-28T02:54:50.164Z,74.91
2024-01-28T02:57:17.908Z,74.93
2024-01-28T02:59:45.655Z,75.07
2024-01-28T03:02:13.321Z,75.15
2024-01-28T03:04:40.936Z,75.27
2024-01-28T03:07:08.779Z,75.31
2024-01-28T03:09:36.639Z,75.42
2024-01-28T03:12:04.610Z,75.36
2024-01-28T03:14:32.329Z,75.44
2024-01-28T03:16:59.923Z,75.42
2024-01-28T03:19:27.582Z,75.49
2024-01-28T03:21:55.246Z,75.38
2024-01-28T03:24:24.207Z,75.39
2024-01-28T03:26:51.966Z,75.49
2024-01-28T03:29:19.722Z,75.55
2024-01-28T03:31:47.288Z,75.62
2024-01-28T03:34:15.254Z,75.70
2024-01-28T03:36:43.029Z,75.73
2024-01-28T03:39:10.610Z,75.82
2024-01-28T03:41:38.239Z,75.81
2024-01-28T03:44:06.309Z,75.89
2024-01-28T03:46:33.862Z,76.00
2024-01-28T03:49:01.717Z,76.01
2024-01-28T03:51:29.854Z,76.18
2024-01-28T03:53:57.570Z,76.20
2024-01-28T03:56:25.122Z,76.29
2024-01-28T03:58:52.682Z,76.30
2024-01-28T04:01:20.333Z,76.39
2024-01-28T04:03:48.434Z,76.50
2024-01-28T04:06:16.133Z,76.49
2024-01-28T04:08:43.949Z,76.39
2024-01-28T04:11:11.499Z,76.59
2024-01-28T04:13:39.065Z,76.64
2024-01-28T04:16:08.459Z,76.76
2024-01-28T04:18:37.895Z,76.73
2024-01-28T04:21:05.760Z,76.80
2024-01-28T04:23:33.491Z,77.02
2024-01-28T04:26:01.376Z,77.02
2024-01-28T04:28:29.029Z,77.05
2024-01-28T04:30:56.710Z,77.12
2024-01-28T04:33:24.242Z,77.22
2024-01-28T04:35:52.209Z,77.23
2024-01-28T04:38:19.770Z,77.17
2024-01-28T04:40:47.346Z,77.26
2024-01-28T04:43:14.698Z,77.28
2024-01-28T04:45:42.267Z,77.33
2024-01-28T04:48:10.236Z,77.36
2024-01-28T04:50:38.301Z,77.37
2024-01-28T04:53:05.836Z,77.48
2024-01-28T04:55:33.511Z,77.63
2024-01-28T04:58:01.065Z,77.80
2024-01-28T05:00:28.740Z,77.82
2024-01-28T05:02:56.494Z,77.85
2024-01-28T05:05:24.265Z,77.92
2024-01-28T05:07:51.822Z,77.98
2024-01-28T05:10:19.370Z,78.03
2024-01-28T05:12:47.403Z,78.12
2024-01-28T05:15:15.239Z,78.09
2024-01-28T05:17:42.871Z,78.10
2024-01-28T05:20:10.535Z,78.01
2024-01-28T05:22:38.114Z,78.16
2024-01-28T05:25:05.773Z,78.11
2024-01-28T05:27:33.450Z,78.15
2024-01-28T05:30:01.091Z,78.05
2024-01-28T05:32:28.905Z,78.07
2024-01-28T05:34:56.709Z,78.03
2024-01-28T05:37:24.367Z,78.00
2024-01-28T05:39:52.034Z,77.94
2024-01-28T05:42:19.713Z,77.87
2024-01-28T05:44:47.544Z,77.83
2024-01-28T05:47:15.115Z,77.91
2024-01-28T05:49:42.890Z,77.92
2024-01-28T05:52:10.761Z,78.10
2024-01-28T05:54:38.299Z,78.04
2024-01-28T05:57:06.012Z,78.05
2024-01-28T05:59:33.716Z,78.14
2024-01-28T06:02:01.383Z,78.15
2024-01-28T06:04:29.114Z,78.14
2024-01-28T06:06:56.841Z,78.25
2024-01-28T06:09:24.408Z,78.18
2024-01-28T06:11:51.924Z,78.21
2024-01-28T06:14:19.481Z,78.28
2024-01-28T06:16:47.046Z,78.23
2024-01-28T06:19:14.773Z,78.24
2024-01-28T06:21:42.615Z,78.19
2024-01-28T06:24:10.332Z,78.21
2024-01-28T06:26:37.890Z,78.22
2024-01-28T06:29:05.548Z,78.23
2024-01-28T06:31:33.103Z,78.25
2024-01-28T06:34:01.063Z,78.25
2024-01-28T06:36:28.896Z,78.17
2024-01-28T06:38:56.609Z,78.23
2024-01-28T06:41:24.161Z,78.27
2024-01-28T06:43:51.826Z,78.24
2024-01-28T06:46:19.486Z,78.25
2024-01-28T06:48:47.114Z,78.35
2024-01-28T06:51:14.909Z,78.36
2024-01-28T06:53:42.986Z,78.29
2024-01-28T06:56:10.643Z,78.21
2024-01-28T06:58:38.304Z,78.22
2024-01-28T07:01:05.938Z,78.22
2024-01-28T07:03:33.927Z,78.10
2024-01-28T07:06:01.634Z,78.20
2024-01-28T07:08:29.253Z,78.06
2024-01-28T07:10:56.924Z,78.04
2024-01-28T07:13:24.392Z,77.97
2024-01-28T07:15:52.224Z,77.84
2024-01-28T07:18:20.348Z,77.81
2024-01-28T07:20:47.967Z,77.72
2024-01-28T07:23:15.541Z,77.53
2024-01-28T07:25:43.191Z,77.54
2024-01-28T07:28:10.755Z,77.43
2024-01-28T07:30:38.449Z,77.30
2024-01-28T07:33:06.020Z,77.41
2024-01-28T07:35:33.732Z,77.13
2024-01-28T07:38:01.308Z,77.04
2024-01-28T07:40:28.766Z,76.97
2024-01-28T07:42:56.573Z,76.82
2024-01-28T07:45:24.449Z,76.80
2024-01-28T07:47:52.205Z,76.52
2024-01-28T07:50:19.931Z,76.36
2024-01-28T07:52:47.483Z,76.28
2024-01-28T07:55:15.129Z,76.19
2024-01-28T07:57:42.706Z,76.11
2024-01-28T08:00:10.439Z,75.91
2024-01-28T08:02:38.176Z,75.49
2024-01-28T08:05:05.819Z,75.55
2024-01-28T08:07:33.540Z,75.35
2024-01-28T08:10:01.274Z,75.16
2024-01-28T08:12:28.893Z,75.37
2024-01-28T08:14:56.555Z,75.25
2024-01-28T08:17:24.235Z,75.31
2024-01-28T08:19:51.951Z,75.49
2024-01-28T08:22:19.610Z,75.44
2024-01-28T08:24:47.573Z,75.30
2024-01-28T08:27:15.246Z,75.05
2024-01-28T08:29:42.802Z,74.67
2024-01-28T08:32:10.474Z,74.15
2024-01-28T08:34:38.108Z,74.06
2024-01-28T08:37:05.802Z,73.88
2024-01-28T08:39:33.360Z,73.70
2024-01-28T08:42:01.010Z,73.55
2024-01-28T08:44:28.871Z,73.37
2024-01-28T08:46:56.947Z,73.30
2024-01-28T08:49:24.558Z,73.08
2024-01-28T08:51:52.378Z,72.82
2024-01-28T08:54:20.149Z,72.59
2024-01-28T08:56:47.783Z,72.51
2024-01-28T08:59:15.346Z,71.99
2024-01-28T09:01:42.940Z,71.77
2024-01-28T09:04:10.958Z,72.09
2024-01-28T09:06:38.776Z,72.08
2024-01-28T09:09:06.500Z,71.83
2024-01-28T09:11:34.183Z,71.63
2024-01-28T09:14:01.826Z,71.92
2024-01-28T09:16:29.405Z,71.82
2024-01-28T09:18:57.157Z,71.70
2024-01-28T09:21:24.878Z,71.42
2024-01-28T09:23:52.672Z,70.91
2024-01-28T09:26:20.553Z,70.91
2024-01-28T09:28:48.205Z,70.73
2024-01-28T09:31:15.903Z,70.39
2024-01-28T09:33:43.790Z,70.30
2024-01-28T09:36:11.513Z,70.41
2024-01-28T09:38:41.161Z,70.35
2024-01-28T09:41:10.304Z,70.18
2024-01-28T09:43:37.964Z,70.01
2024-01-28T09:46:05.934Z,70.20
2024-01-28T09:48:33.726Z,69.71
2024-01-28T09:51:01.462Z,69.35
2024-01-28T09:53:29.036Z,69.28
2024-01-28T09:55:56.716Z,68.75
2024-01-28T09:58:24.340Z,68.62
2024-01-28T10:00:51.939Z,68.78
2024-01-28T10:03:19.437Z,68.50
2024-01-28T10:05:47.228Z,68.68
2024-01-28T10:08:15.216Z,68.36
2024-01-28T10:10:42.951Z,68.17
2024-01-28T10:13:10.512Z,67.69
2024-01-28T10:15:38.230Z,67.17
2024-01-28T10:18:06.038Z,66.74
2024-01-28T10:20:33.804Z,66.23
2024-01-28T10:23:01.365Z,66.04
2024-01-28T10:25:29.020Z,65.80
2024-01-28T10:27:56.722Z,65.46
2024-01-28T10:30:24.783Z,65.40
2024-01-28T10:32:52.755Z,65.63
2024-01-28T10:35:20.430Z,65.19
2024-01-28T10:37:48.157Z,64.83
2024-01-28T10:40:15.900Z,65.03
2024-01-28T10:42:43.673Z,64.89
2024-01-28T10:45:11.424Z,64.75
2024-01-28T10:47:39.220Z,64.35
2024-01-28T10:50:06.887Z,64.23
2024-01-28T10:52:34.532Z,63.40
2024-01-28T10:55:02.239Z,62.27
2024-01-28T10:57:30.089Z,61.84
2024-01-28T10:59:57.711Z,61.68
2024-01-28T11:02:25.372Z,61.87
2024-01-28T11:04:52.935Z,60.69
2024-01-28T11:07:20.609Z,60.45
2024-01-28T11:09:48.371Z,60.52
2024-01-28T11:12:16.300Z,60.70
2024-01-28T11:14:44.088Z,60.49
2024-01-28T11:17:11.750Z,60.27
2024-01-28T11:19:39.358Z,60.20
2024-01-28T11:22:07.174Z,59.70
2024-01-28T11:24:34.905Z,59.97
2024-01-28T11:27:02.596Z,60.25
2024-01-28T11:29:30.159Z,60.70
2024-01-28T11:31:57.828Z,60.14
2024-01-28T11:34:26.027Z,60.33
2024-01-28T11:36:54.133Z,60.62
2024-01-28T11:39:21.868Z,60.31
2024-01-28T11:41:49.588Z,60.60
2024-01-28T11:44:17.150Z,61.04
2024-01-28T11:46:44.704Z,61.65
2024-01-28T11:49:12.406Z,61.40
2024-01-28T11:51:40.290Z,61.57
2024-01-28T11:54:07.794Z,61.46
2024-01-28T11:56:35.393Z,61.56
2024-01-28T11:59:03.222Z,61.89
2024-01-28T12:01:30.924Z,62.03
2024-01-28T12:03:58.709Z,61.72
2024-01-28T12:06:26.446Z,62.38
2024-01-28T12:08:54.067Z,62.04
2024-01-28T12:11:21.668Z,61.77
2024-01-28T12:13:49.393Z,61.70
2024-01-28T12:16:17.262Z,61.15
2024-01-28T12:18:44.921Z,61.75
2024-01-28T12:21:12.716Z,61.22
2024-01-28T12:23:40.248Z,60.59
2024-01-28T12:26:07.824Z,60.80
2024-01-28T12:28:35.406Z,60.86
2024-01-28T12:31:03.088Z,60.64
2024-01-28T12:33:31.077Z,60.75
2024-01-28T12:35:58.961Z,60.82
2024-01-28T12:38:27.008Z,60.71
2024-01-28T12:40:54.802Z,60.73
2024-01-28T12:43:22.256Z,60.69
2024-01-28T12:45:49.853Z,60.81
2024-01-28T12:48:17.598Z,61.00
2024-01-28T12:50:45.248Z,61.31
2024-01-28T12:53:12.893Z,61.52
2024-01-28T12:55:40.552Z,61.22
2024-01-28T12:58:08.130Z,61.56
2024-01-28T13:00:35.679Z,61.38
2024-01-28T13:03:03.654Z,61.60
2024-01-28T13:05:31.372Z,61.54
2024-01-28T13:07:59.065Z,61.52
2024-01-28T13:10:26.728Z,61.48
2024-01-28T13:12:54.436Z,61.09
2024-01-28T13:15:22.194Z,60.95
2024-01-28T13:17:49.837Z,61.08
2024-01-28T13:20:17.666Z,60.92
2024-01-28T13:22:46.436Z,60.72
2024-01-28T13:25:14.353Z,60.48
2024-01-28T13:27:42.146Z,60.34
2024-01-28T13:30:09.680Z,60.78
2024-01-28T13:32:37.395Z,60.88
2024-01-28T13:35:05.323Z,60.34
2024-01-28T13:37:33.047Z,60.52
2024-01-28T13:40:00.715Z,60.92
2024-01-28T13:42:28.311Z,61.20
2024-01-28T13:44:55.938Z,60.78
2024-01-28T13:47:23.488Z,61.11
2024-01-28T13:49:51.158Z,60.91
2024-01-28T13:52:18.815Z,60.69
2024-01-28T13:54:46.674Z,60.91
2024-01-28T13:57:14.386Z,60.70
2024-01-28T13:59:42.008Z,59.95
2024-01-28T14:02:09.555Z,60.08
2024-01-28T14:04:37.555Z,60.27
2024-01-28T14:07:05.384Z,60.09
2024-01-28T14:09:33.079Z,59.72
2024-01-28T14:12:00.730Z,59.74
2024-01-28T14:14:28.283Z,59.46
2024-01-28T14:16:56.265Z,59.86
2024-01-28T14:19:24.057Z,59.75
2024-01-28T14:21:51.905Z,59.96
2024-01-28T14:24:19.820Z,59.95
2024-01-28T14:26:47.610Z,61.12
2024-01-28T14:29:15.288Z,62.11
2024-01-28T14:31:42.834Z,62.73
2024-01-28T14:34:10.582Z,63.02
2024-01-28T14:36:38.318Z,63.50
2024-01-28T14:39:06.032Z,63.97
2024-01-28T14:41:33.576Z,63.95
2024-01-28T14:44:01.560Z,64.09
2024-01-28T14:46:29.108Z,64.14
2024-01-28T14:48:56.964Z,64.12
2024-01-28T14:51:24.667Z,64.06
2024-01-28T14:53:52.292Z,64.47
2024-01-28T14:56:19.858Z,64.39
2024-01-28T14:58:47.511Z,63.97
2024-01-28T15:01:15.187Z,63.55
2024-01-28T15:03:42.808Z,62.61
2024-01-28T15:06:10.852Z,60.49
2024-01-28T15:08:38.574Z,58.84
2024-01-28T15:11:06.116Z,57.98
2024-01-28T15:13:33.682Z,57.62
2024-01-28T15:16:01.312Z,57.77
2024-01-28T15:18:29.110Z,57.42
2024-01-28T15:20:56.772Z,57.89
2024-01-28T15:23:24.138Z,58.27
2024-01-28T15:25:51.782Z,59.18
2024-01-28T15:28:25.122Z,60.25
2024-01-28T15:30:55.485Z,61.10
2024-01-28T15:33:24.441Z,61.49
2024-01-28T15:35:52.357Z,61.02
2024-01-28T15:38:19.939Z,61.35
2024-01-28T15:40:47.711Z,62.00
2024-01-28T15:43:15.348Z,62.51
2024-01-28T15:45:42.979Z,63.27
2024-01-28T15:48:10.923Z,63.72
2024-01-28T15:50:38.643Z,63.76
2024-01-28T15:53:06.199Z,63.60
2024-01-28T15:55:34.075Z,63.71
2024-01-28T15:58:01.947Z,63.91
2024-01-28T16:00:29.649Z,64.30
2024-01-28T16:02:57.362Z,64.68
2024-01-28T16:05:25.107Z,65.11
2024-01-28T16:07:52.887Z,65.12
2024-01-28T16:10:20.691Z,65.39
2024-01-28T16:12:48.509Z,65.60
2024-01-28T16:15:16.345Z,66.01
2024-01-28T16:17:44.141Z,66.24
2024-01-28T16:20:11.934Z,66.66
2024-01-28T16:22:39.574Z,66.98
2024-01-28T16:25:07.440Z,67.26
2024-01-28T16:27:35.324Z,67.63
2024-01-28T16:30:03.077Z,67.99
2024-01-28T16:32:30.621Z,68.38
2024-01-28T16:34:58.811Z,68.70
2024-01-28T16:37:26.564Z,68.98
2024-01-28T16:39:54.271Z,68.98
2024-01-28T16:42:22.124Z,69.57
2024-01-28T16:44:49.752Z,69.75
2024-01-28T16:47:17.318Z,69.94
2024-01-28T16:49:45.093Z,70.31
2024-01-28T16:52:12.625Z,70.52
2024-01-28T16:54:40.654Z,70.49
2024-01-28T16:57:08.256Z,70.75
2024-01-28T16:59:35.820Z,70.76
2024-01-28T17:02:03.402Z,70.74
2024-01-28T17:04:31.040Z,70.80
2024-01-28T17:06:59.117Z,70.75
2024-01-28T17:09:26.828Z,71.15
2024-01-28T17:11:54.445Z,71.22
2024-01-28T17:14:22.633Z,71.31
2024-01-28T17:16:50.375Z,71.57
2024-01-28T17:19:18.419Z,71.66
2024-01-28T17:21:46.283Z,71.87
2024-01-28T17:24:14.006Z,71.73
2024-01-28T17:26:41.631Z,71.91
2024-01-28T17:29:09.185Z,72.06
2024-01-28T17:31:36.843Z,72.17
2024-01-28T17:34:04.599Z,72.22
2024-01-28T17:36:32.700Z,72.14
2024-01-28T17:39:00.441Z,72.44
2024-01-28T17:41:28.108Z,72.57
2024-01-28T17:43:55.667Z,72.63
2024-01-28T17:46:23.335Z,72.89
2024-01-28T17:48:51.044Z,73.19
2024-01-28T17:51:18.900Z,73.31
2024-01-28T17:53:46.546Z,73.79
2024-01-28T17:56:14.476Z,73.85
2024-01-28T17:58:42.045Z,73.94
2024-01-28T18:01:10.024Z,74.08
2024-01-28T18:03:37.799Z,74.28
2024-01-28T18:06:05.443Z,74.46
2024-01-28T18:08:33.108Z,74.81
2024-01-28T18:11:00.760Z,75.08
2024-01-28T18:13:28.216Z,75.22
2024-01-28T18:15:55.925Z,75.45
2024-01-28T18:18:23.752Z,75.58
2024-01-28T18:20:51.929Z,75.89
2024-01-28T18:23:19.471Z,75.75
2024-01-28T18:25:47.132Z,75.91
2024-01-28T18:28:14.795Z,76.12
2024-01-28T18:30:42.385Z,76.30
2024-01-28T18:33:10.281Z,76.31
2024-01-28T18:35:37.990Z,76.47
2024-01-28T18:38:05.551Z,76.31
2024-01-28T18:40:32.891Z,76.84
2024-01-28T18:43:00.555Z,77.06
2024-01-28T18:45:28.341Z,77.25
2024-01-28T18:47:56.068Z,77.37
2024-01-28T18:50:23.950Z,77.52
2024-01-28T18:52:51.505Z,77.60
2024-01-28T18:55:19.166Z,77.69
2024-01-28T18:57:47.969Z,77.84
2024-01-28T19:00:16.796Z,77.95
2024-01-28T19:02:44.546Z,78.08
2024-01-28T19:05:12.441Z,78.11
2024-01-28T19:07:40.255Z,78.09
2024-01-28T19:10:08.261Z,78.22
2024-01-28T19:12:36.002Z,78.50
2024-01-28T19:15:03.959Z,78.71
2024-01-28T19:17:31.535Z,78.93
2024-01-28T19:19:59.757Z,79.04
2024-01-28T19:22:27.553Z,79.24
2024-01-28T19:24:55.528Z,79.48
2024-01-28T19:27:23.218Z,79.50
2024-01-28T19:29:50.929Z,79.57
2024-01-28T19:32:18.653Z,79.52
2024-01-28T19:34:46.214Z,79.56
2024-01-28T19:37:13.924Z,79.36
2024-01-28T19:39:41.630Z,79.60
2024-01-28T19:42:09.243Z,79.69
2024-01-28T19:44:37.213Z,79.66
2024-01-28T19:47:04.769Z,79.52
2024-01-28T19:49:32.775Z,79.69
2024-01-28T19:52:00.659Z,79.81
2024-01-28T19:54:28.494Z,79.67
2024-01-28T19:56:56.038Z,79.77
2024-01-28T19:59:24.216Z,79.87
2024-01-28T20:01:51.842Z,79.73
2024-01-28T20:04:19.934Z,79.79
2024-01-28T20:06:47.669Z,79.64
2024-01-28T20:09:15.440Z,79.92
2024-01-28T20:11:43.124Z,79.98
2024-01-28T20:14:10.697Z,80.13
2024-01-28T20:16:38.342Z,80.18
2024-01-28T20:19:06.141Z,80.32
2024-01-28T20:21:34.007Z,80.13
2024-01-28T20:24:01.634Z,80.04
2024-01-28T20:26:29.613Z,80.01
2024-01-28T20:28:57.166Z,79.94
2024-01-28T20:31:24.789Z,80.04
2024-01-28T20:33:52.555Z,80.00
2024-01-28T20:36:21.595Z,80.28
2024-01-28T20:38:49.150Z,80.14
2024-01-28T20:41:16.720Z,79.96
2024-01-28T20:43:44.464Z,79.79
2024-01-28T20:46:12.446Z,79.65
2024-01-28T20:48:40.331Z,79.75
2024-01-28T20:51:07.957Z,79.68
2024-01-28T20:53:35.419Z,79.56
2024-01-28T20:56:02.984Z,79.66
2024-01-28T20:58:30.636Z,79.68
2024-01-28T21:00:58.377Z,79.74
2024-01-28T21:03:26.021Z,79.72
2024-01-28T21:05:53.748Z,79.90
2024-01-28T21:08:21.493Z,79.97
2024-01-28T21:10:49.458Z,79.90
2024-01-28T21:13:17.118Z,79.77
2024-01-28T21:15:44.851Z,79.71
2024-01-28T21:18:12.741Z,79.67
2024-01-28T21:20:40.409Z,79.78
2024-01-28T21:23:08.085Z,79.73
2024-01-28T21:25:35.633Z,79.70
2024-01-28T21:28:03.364Z,79.72
2024-01-28T21:30:31.079Z,79.68
2024-01-28T21:32:59.129Z,79.56
2024-01-28T21:35:26.787Z,79.74
2024-01-28T21:37:54.663Z,79.57
2024-01-28T21:40:22.316Z,79.63
2024-01-28T21:42:49.906Z,79.47
2024-01-28T21:45:17.769Z,79.40
2024-01-28T21:47:45.425Z,79.50
2024-01-28T21:50:13.142Z,79.50
2024-01-28T21:52:40.820Z,79.39
2024-01-28T21:55:08.855Z,79.36
2024-01-28T21:57:36.687Z,79.29
2024-01-28T22:00:04.429Z,79.37
2024-01-28T22:02:31.981Z,79.31
2024-01-28T22:04:59.630Z,79.09
2024-01-28T22:07:27.431Z,79.17
2024-01-28T22:09:55.298Z,79.38
2024-01-28T22:12:22.874Z,79.30
2024-01-28T22:14:50.906Z,79.24
2024-01-28T22:17:18.862Z,79.28
2024-01-28T22:19:46.577Z,79.17
2024-01-28T22:22:14.284Z,79.32
2024-01-28T22:24:41.976Z,79.29
2024-01-28T22:27:09.818Z,79.40
2024-01-28T22:29:37.471Z,79.43
2024-01-28T22:32:05.340Z,79.40
2024-01-28T22:34:33.074Z,79.37
2024-01-28T22:37:01.230Z,79.57
2024-01-28T22:39:28.983Z,79.55
2024-01-28T22:41:56.601Z,79.60
2024-01-28T22:44:24.264Z,79.61
2024-01-28T22:46:51.822Z,79.65
2024-01-28T22:49:19.517Z,79.75
2024-01-28T22:51:47.439Z,80.06
2024-01-28T22:54:15.115Z,80.27
2024-01-28T22:56:42.978Z,80.29
2024-01-28T22:59:10.538Z,80.40
2024-01-28T23:01:38.254Z,80.46
2024-01-28T23:04:06.075Z,80.56
2024-01-28T23:06:33.979Z,80.87
2024-01-28T23:09:01.485Z,81.06
2024-01-28T23:11:29.053Z,81.24
2024-01-28T23:13:56.715Z,81.23
2024-01-28T23:16:25.184Z,81.24
2024-01-28T23:18:53.042Z,81.23
2024-01-28T23:21:20.854Z,81.56
2024-01-28T23:23:48.383Z,81.55
2024-01-28T23:26:16.054Z,81.62
2024-01-28T23:28:43.595Z,81.69
2024-01-28T23:31:11.518Z,81.99
2024-01-28T23:33:39.593Z,82.19
2024-01-28T23:36:07.432Z,82.25
2024-01-28T23:38:35.376Z,82.31
2024-01-28T23:41:03.145Z,82.49
2024-01-28T23:43:30.596Z,82.57
2024-01-28T23:45:58.227Z,82.84
2024-01-28T23:48:26.038Z,82.68
2024-01-28T23:50:53.685Z,82.64
2024-01-28T23:53:21.353Z,82.76
2024-01-28T23:55:48.897Z,82.71
2024-01-28T23:58:16.569Z,82.71
